Time;durP1;ratioP1;P1;durP2;ratioP2;P2;SDS_P1;SDS_P2;PMS_P1;PMS_P2;Temp;Humidity;BMP_temperature;BMP_pressure;BME280_temperature;BME280_humidity;BME280_pressure;Samples;Min_cycle;Max_cycle;Signal;HPM_P1;HPM_P2
2023/05/24 01:02:31;;;;;;;16.33;4.63;;;8.70;99.90;;;;;;5450463;24;20042;-80
2023/05/24 01:04:58;;;;;;;19.63;5.53;;;8.70;99.90;;;;;;4860272;29;37775;-78
2023/05/24 01:07:52;;;;;;;22.03;4.90;;;8.70;99.90;;;;;;4862163;29;39260;-80
2023/05/24 01:10:50;;;;;;;14.47;4.50;;;8.60;99.90;;;;;;4859881;29;36748;-80
2023/05/24 01:13:31;;;;;;;14.50;4.63;;;8.70;99.90;;;;;;4859130;29;36541;-80
2023/05/24 01:16:09;;;;;;;18.20;4.88;;;8.60;99.90;;;;;;4856355;29;39961;-80
2023/05/24 01:18:49;;;;;;;16.90;3.93;;;8.60;99.90;;;;;;4859970;29;48894;-79
2023/05/24 01:21:39;;;;;;;19.07;4.53;;;8.50;99.90;;;;;;4862788;29;37250;-80
2023/05/24 01:24:41;;;;;;;21.83;4.53;;;8.50;99.90;;;;;;4856001;29;37464;-79
2023/05/24 01:27:11;;;;;;;21.63;4.67;;;8.50;99.90;;;;;;4856629;29;39163;-79
2023/05/24 01:29:37;;;;;;;16.83;4.30;;;8.50;99.90;;;;;;4860900;29;37694;-79
2023/05/24 01:32:07;;;;;;;19.27;5.03;;;8.40;99.90;;;;;;4849121;29;38746;-79
2023/05/24 01:34:33;;;;;;;14.30;4.50;;;8.40;99.90;;;;;;4851800;29;38208;-78
2023/05/24 01:36:59;;;;;;;15.87;4.10;;;8.40;99.90;;;;;;4853683;29;37247;-78
2023/05/24 01:39:28;;;;;;;16.20;4.53;;;8.40;99.90;;;;;;4852684;29;39288;-79
2023/05/24 01:42:07;;;;;;;18.50;4.43;;;8.30;99.90;;;;;;4859174;29;39656;-79
2023/05/24 01:44:42;;;;;;;21.33;4.53;;;8.40;99.90;;;;;;4855937;29;46715;-79
2023/05/24 01:47:34;;;;;;;19.40;5.13;;;8.30;99.90;;;;;;4852610;29;38960;-79
2023/05/24 01:50:10;;;;;;;16.33;4.53;;;8.30;99.90;;;;;;4845316;29;39443;-78
2023/05/24 01:52:37;;;;;;;14.67;4.60;;;8.30;99.90;;;;;;4848595;29;47301;-79
2023/05/24 01:55:06;;;;;;;17.17;4.10;;;8.30;99.90;;;;;;4871669;29;35929;-78
2023/05/24 01:57:34;;;;;;;12.33;4.00;;;8.30;99.90;;;;;;4854033;29;46617;-78
2023/05/24 02:00:05;;;;;;;18.67;4.50;;;8.30;99.90;;;;;;4857015;29;38055;-78
2023/05/24 02:02:31;;;;;;;17.93;4.97;;;8.30;99.90;;;;;;4861340;29;38267;-78
2023/05/24 02:05:01;;;;;;;18.17;4.20;;;8.10;99.90;;;;;;4858292;29;36724;-79
2023/05/24 02:07:27;;;;;;;23.27;5.20;;;8.20;99.90;;;;;;4868965;29;38569;-79
2023/05/24 02:09:53;;;;;;;14.30;4.13;;;8.20;99.90;;;;;;4875070;29;39054;-78
2023/05/24 02:12:19;;;;;;;17.87;4.27;;;8.20;99.90;;;;;;4863196;29;37118;-78
2023/05/24 02:14:49;;;;;;;17.57;5.13;;;8.20;99.90;;;;;;4862525;29;37361;-79
2023/05/24 02:17:17;;;;;;;19.97;5.00;;;8.20;99.90;;;;;;4870625;29;39209;-79
2023/05/24 02:19:45;;;;;;;15.43;4.67;;;8.20;99.90;;;;;;4863837;29;37818;-79
2023/05/24 02:22:11;;;;;;;17.23;4.00;;;8.20;99.90;;;;;;4859381;29;37339;-78
2023/05/24 02:24:39;;;;;;;20.10;4.30;;;8.00;99.90;;;;;;4853343;29;37841;-79
2023/05/24 02:27:05;;;;;;;18.97;4.70;;;8.00;99.90;;;;;;4861123;29;38214;-78
2023/05/24 02:29:31;;;;;;;25.37;4.20;;;8.10;99.90;;;;;;4864480;29;37771;-79
2023/05/24 02:31:57;;;;;;;14.70;4.37;;;8.10;99.90;;;;;;4861342;29;38792;-80
2023/05/24 02:34:24;;;;;;;18.73;4.77;;;8.00;99.90;;;;;;4865364;29;37185;-79
2023/05/24 02:36:53;;;;;;;12.87;4.87;;;8.00;99.90;;;;;;4866747;29;38308;-78
2023/05/24 02:39:19;;;;;;;16.90;4.70;;;8.10;99.90;;;;;;4868624;29;37818;-78
2023/05/24 02:41:45;;;;;;;17.33;4.80;;;8.10;99.90;;;;;;4853472;29;37948;-78
2023/05/24 02:44:11;;;;;;;14.43;4.17;;;8.10;99.90;;;;;;4858796;29;36771;-78
2023/05/24 02:46:37;;;;;;;21.00;6.43;;;8.10;99.90;;;;;;4860412;29;37907;-78
2023/05/24 02:49:04;;;;;;;19.90;4.93;;;8.10;99.90;;;;;;4867056;29;40090;-80
2023/05/24 02:51:31;;;;;;;23.60;5.10;;;8.10;99.90;;;;;;4861677;29;40944;-79
2023/05/24 02:53:57;;;;;;;15.40;4.87;;;8.10;99.90;;;;;;4860975;29;35999;-79
2023/05/24 02:56:25;;;;;;;16.23;4.33;;;8.10;99.90;;;;;;4856595;29;38758;-79
2023/05/24 02:58:53;;;;;;;12.43;5.17;;;8.10;99.90;;;;;;4856110;29;38892;-80
2023/05/24 03:01:20;;;;;;;14.70;4.87;;;8.10;99.90;;;;;;4847126;29;37606;-79
2023/05/24 03:03:46;;;;;;;17.97;5.00;;;8.10;99.90;;;;;;4851250;29;36149;-80
2023/05/24 03:06:12;;;;;;;17.07;4.97;;;8.10;99.90;;;;;;4857261;29;38736;-79
2023/05/24 03:08:40;;;;;;;17.33;4.77;;;8.20;99.90;;;;;;4851526;29;37742;-80
2023/05/24 03:11:06;;;;;;;22.20;5.17;;;8.20;99.90;;;;;;4856871;29;39054;-79
2023/05/24 03:13:32;;;;;;;19.50;5.23;;;8.20;99.90;;;;;;4855538;29;36289;-79
2023/05/24 03:15:58;;;;;;;14.90;5.07;;;8.20;99.90;;;;;;4849046;29;38462;-79
2023/05/24 03:18:24;;;;;;;12.27;4.33;;;8.10;99.90;;;;;;4855867;29;40100;-80
2023/05/24 03:20:52;;;;;;;15.27;4.77;;;8.20;99.90;;;;;;4855795;29;21054;-79
2023/05/24 03:23:18;;;;;;;14.70;4.90;;;8.20;99.90;;;;;;4852757;29;37434;-79
2023/05/24 03:25:44;;;;;;;19.40;6.77;;;8.30;99.90;;;;;;4855629;29;38639;-79
2023/05/24 03:28:13;;;;;;;15.60;5.00;;;8.30;99.90;;;;;;4849686;29;38491;-78
2023/05/24 03:30:39;;;;;;;19.03;5.67;;;8.40;99.90;;;;;;4846508;29;37443;-79
2023/05/24 03:33:05;;;;;;;23.73;5.63;;;8.50;99.90;;;;;;4845234;29;36493;-79
2023/05/24 03:35:31;;;;;;;19.00;5.67;;;8.60;99.90;;;;;;4842362;29;38796;-79
2023/05/24 03:37:58;;;;;;;19.30;4.83;;;8.60;99.90;;;;;;4842370;29;39090;-80
2023/05/24 03:40:24;;;;;;;25.30;5.60;;;8.70;99.90;;;;;;4842615;29;41308;-79
2023/05/24 03:42:50;;;;;;;16.23;6.30;;;8.80;99.90;;;;;;4852945;29;36078;-79
2023/05/24 03:45:16;;;;;;;23.03;6.37;;;8.90;99.90;;;;;;4862803;29;39983;-79
2023/05/24 03:47:42;;;;;;;22.73;6.07;;;8.90;99.90;;;;;;4846511;29;38274;-80
2023/05/24 03:50:09;;;;;;;23.63;5.67;;;8.90;99.90;;;;;;4849510;29;38627;-79
2023/05/24 03:52:35;;;;;;;21.83;6.30;;;9.00;99.90;;;;;;4859466;29;38385;-79
2023/05/24 03:55:01;;;;;;;22.43;6.13;;;9.10;99.90;;;;;;4854174;29;37798;-79
2023/05/24 03:57:27;;;;;;;20.10;5.23;;;9.10;99.90;;;;;;4845630;29;42299;-78
2023/05/24 03:59:54;;;;;;;16.67;5.93;;;9.10;99.90;;;;;;4851376;29;39182;-79
2023/05/24 04:02:20;;;;;;;25.57;5.83;;;9.20;99.90;;;;;;4848648;29;36387;-79
2023/05/24 04:04:46;;;;;;;23.17;6.40;;;9.30;99.90;;;;;;4863215;29;39009;-79
2023/05/24 04:07:14;;;;;;;22.30;6.33;;;9.30;99.90;;;;;;4858251;29;38247;-79
2023/05/24 04:09:40;;;;;;;22.53;5.77;;;9.30;99.90;;;;;;4857813;29;38588;-80
2023/05/24 04:12:06;;;;;;;24.27;6.57;;;9.30;99.90;;;;;;4854768;29;37063;-79
2023/05/24 04:14:32;;;;;;;24.87;5.20;;;9.40;99.90;;;;;;4862521;29;38503;-79
2023/05/24 04:16:58;;;;;;;25.80;5.93;;;9.40;99.90;;;;;;4854682;29;38815;-79
2023/05/24 04:19:24;;;;;;;21.40;5.47;;;9.50;99.90;;;;;;4861372;29;37163;-79
2023/05/24 04:21:51;;;;;;;26.55;6.38;;;9.50;99.90;;;;;;4857298;29;36371;-79
2023/05/24 04:24:17;;;;;;;24.50;6.13;;;9.60;99.90;;;;;;4859588;29;38090;-79
2023/05/24 04:26:43;;;;;;;15.10;5.28;;;9.70;99.90;;;;;;4855945;29;37702;-79
2023/05/24 04:29:09;;;;;;;24.05;6.50;;;9.90;99.90;;;;;;4855747;29;37411;-80
2023/05/24 04:31:35;;;;;;;26.43;6.53;;;9.90;99.90;;;;;;4856206;29;35919;-79
2023/05/24 04:34:01;;;;;;;22.33;5.80;;;10.00;99.90;;;;;;4855730;29;38804;-80
2023/05/24 04:36:30;;;;;;;20.83;5.88;;;10.00;99.90;;;;;;4856624;29;37874;-79
2023/05/24 04:39:01;;;;;;;22.80;6.22;;;10.10;99.90;;;;;;4853618;29;39034;-80
2023/05/24 04:41:30;;;;;;;28.30;6.37;;;10.20;99.90;;;;;;4862910;29;48893;-80
2023/05/24 04:44:00;;;;;;;22.60;5.63;;;10.20;99.90;;;;;;4851675;29;38480;-79
2023/05/24 04:46:26;;;;;;;23.80;5.45;;;10.30;99.90;;;;;;4854246;29;38160;-80
2023/05/24 04:48:53;;;;;;;28.27;5.38;;;10.40;99.90;;;;;;4853663;29;37505;-79
2023/05/24 04:51:22;;;;;;;22.67;4.82;;;10.50;99.90;;;;;;4857899;29;36181;-80
2023/05/24 04:53:48;;;;;;;20.25;4.68;;;10.50;99.90;;;;;;4857541;29;37730;-80
2023/05/24 04:56:15;;;;;;;23.05;5.13;;;10.60;99.90;;;;;;4861099;29;39226;-82
2023/05/24 04:58:42;;;;;;;21.52;4.70;;;10.70;99.90;;;;;;4860971;29;37553;-82
2023/05/24 05:01:08;;;;;;;22.52;4.90;;;10.80;99.90;;;;;;4852456;29;38473;-81
2023/05/24 05:03:34;;;;;;;22.13;4.88;;;11.00;99.90;;;;;;4863693;29;38745;-81
2023/05/24 05:06:00;;;;;;;17.00;4.07;;;11.10;99.90;;;;;;4853483;29;37956;-82
2023/05/24 05:08:27;;;;;;;19.75;4.25;;;11.20;99.90;;;;;;4873158;29;37920;-81
2023/05/24 05:11:03;;;;;;;17.75;5.07;;;11.30;99.90;;;;;;4862389;29;37234;-83
2023/05/24 05:13:30;;;;;;;22.15;4.43;;;11.40;99.90;;;;;;4868018;29;47332;-82
2023/05/24 05:15:57;;;;;;;24.30;4.82;;;11.40;99.90;;;;;;4882817;29;39023;-82
2023/05/24 05:18:23;;;;;;;21.88;4.63;;;11.50;99.90;;;;;;4875738;29;35816;-83
2023/05/24 05:21:02;;;;;;;22.17;4.85;;;11.70;99.90;;;;;;4881571;29;36388;-83
2023/05/24 05:23:29;;;;;;;17.17;4.63;;;12.00;99.90;;;;;;4869163;29;49626;-82
2023/05/24 05:26:02;;;;;;;19.55;4.10;;;12.30;99.90;;;;;;4869778;29;39225;-82
2023/05/24 05:28:28;;;;;;;15.38;4.43;;;12.60;99.90;;;;;;4876143;29;49739;-82
2023/05/24 05:30:55;;;;;;;13.80;3.72;;;13.00;99.90;;;;;;4869390;29;36519;-82
2023/05/24 05:33:21;;;;;;;18.20;3.88;;;13.30;99.90;;;;;;4868005;29;39613;-82
2023/05/24 05:35:47;;;;;;;12.43;2.90;;;13.30;99.90;;;;;;4861995;29;39144;-81
2023/05/24 05:38:14;;;;;;;20.48;4.32;;;13.20;99.90;;;;;;4861668;29;38922;-79
2023/05/24 05:40:40;;;;;;;23.75;4.90;;;13.10;99.90;;;;;;4845714;29;36600;-81
2023/05/24 05:43:07;;;;;;;15.98;4.00;;;12.80;99.90;;;;;;4850440;29;37677;-79
2023/05/24 05:45:33;;;;;;;19.10;4.03;;;12.50;99.90;;;;;;4850091;29;38798;-80
2023/05/24 05:47:59;;;;;;;14.80;3.33;;;12.50;99.90;;;;;;4858141;29;38241;-81
2023/05/24 05:50:25;;;;;;;22.35;3.90;;;12.40;99.90;;;;;;4856153;29;36025;-80
2023/05/24 05:52:52;;;;;;;17.90;3.97;;;12.50;99.90;;;;;;4857583;29;37985;-81
2023/05/24 05:55:18;;;;;;;16.85;4.00;;;12.50;99.90;;;;;;4861566;29;37617;-80
2023/05/24 05:57:44;;;;;;;19.05;4.20;;;12.60;99.90;;;;;;4861900;29;37607;-82
2023/05/24 06:00:11;;;;;;;17.80;3.47;;;12.60;99.90;;;;;;4862195;29;35896;-81
2023/05/24 06:02:37;;;;;;;18.52;4.35;;;12.60;99.90;;;;;;4866003;29;37528;-81
2023/05/24 06:05:03;;;;;;;17.75;3.75;;;12.50;99.90;;;;;;4861322;29;38139;-82
2023/05/24 06:07:30;;;;;;;12.50;3.35;;;12.50;99.90;;;;;;4861338;29;48594;-81
2023/05/24 06:09:56;;;;;;;15.38;3.53;;;12.60;99.90;;;;;;4860218;29;37561;-81
2023/05/24 06:12:22;;;;;;;13.10;3.83;;;12.70;99.90;;;;;;4863259;29;41436;-81
2023/05/24 06:14:49;;;;;;;18.38;3.53;;;12.90;99.90;;;;;;4865957;29;39090;-81
2023/05/24 06:17:15;;;;;;;17.98;4.40;;;12.90;99.90;;;;;;4857290;29;39073;-82
2023/05/24 06:19:42;;;;;;;20.05;4.03;;;12.90;99.90;;;;;;4862771;29;39588;-81
2023/05/24 06:22:08;;;;;;;19.02;3.58;;;12.90;99.90;;;;;;4854213;29;38892;-81
2023/05/24 06:24:35;;;;;;;15.25;3.30;;;12.90;99.90;;;;;;4856408;29;38482;-82
2023/05/24 06:27:01;;;;;;;12.30;3.72;;;12.90;99.90;;;;;;4856003;29;37751;-80
2023/05/24 06:29:27;;;;;;;19.73;4.05;;;13.00;99.90;;;;;;4855929;29;47429;-81
2023/05/24 06:31:53;;;;;;;13.85;3.38;;;13.00;99.90;;;;;;4841581;29;37228;-82
2023/05/24 06:34:22;;;;;;;16.73;4.25;;;13.10;99.90;;;;;;4871313;29;37806;-81
2023/05/24 06:36:50;;;;;;;18.83;3.83;;;13.10;99.90;;;;;;4854651;29;37134;-81
2023/05/24 06:39:16;;;;;;;14.32;3.65;;;12.90;99.90;;;;;;4859184;29;38068;-81
2023/05/24 06:41:43;;;;;;;17.23;4.30;;;12.90;99.90;;;;;;4861602;29;38011;-81
2023/05/24 06:44:09;;;;;;;15.20;3.10;;;12.90;99.90;;;;;;4860528;29;37963;-81
2023/05/24 06:46:36;;;;;;;17.95;4.25;;;13.00;99.90;;;;;;4857697;29;39369;-82
2023/05/24 06:49:02;;;;;;;17.15;3.60;;;13.10;99.90;;;;;;4863414;29;38082;-82
2023/05/24 06:51:29;;;;;;;17.38;3.85;;;13.20;99.90;;;;;;4858911;29;37706;-81
2023/05/24 06:53:55;;;;;;;18.52;3.80;;;13.50;99.90;;;;;;4861669;29;38963;-81
2023/05/24 06:56:22;;;;;;;12.07;4.07;;;13.60;99.90;;;;;;4857313;29;37114;-80
2023/05/24 06:58:48;;;;;;;13.63;3.35;;;13.90;99.90;;;;;;4850148;29;36449;-78
2023/05/24 07:01:14;;;;;;;11.95;3.13;;;14.10;99.90;;;;;;4855382;29;39952;-80
2023/05/24 07:03:40;;;;;;;14.98;3.25;;;14.10;99.90;;;;;;4819968;29;1248272;-79
2023/05/24 07:06:08;;;;;;;15.68;3.28;;;14.20;99.90;;;;;;4853421;29;37133;-79
2023/05/24 07:08:35;;;;;;;11.65;3.13;;;14.40;99.90;;;;;;4863180;29;35969;-78
2023/05/24 07:11:02;;;;;;;11.63;2.63;;;14.80;99.90;;;;;;4851660;29;37870;-80
2023/05/24 07:13:28;;;;;;;15.63;3.50;;;15.10;99.90;;;;;;4848446;29;47222;-79
2023/05/24 07:15:54;;;;;;;14.38;3.08;;;15.30;99.90;;;;;;4851333;29;38650;-80
2023/05/24 07:18:20;;;;;;;11.32;2.70;;;15.10;99.90;;;;;;4852232;29;36510;-80
2023/05/24 07:20:46;;;;;;;13.45;3.20;;;15.00;99.90;;;;;;4841972;29;38080;-80
2023/05/24 07:23:12;;;;;;;15.55;3.38;;;14.80;99.90;;;;;;4848802;29;39540;-79
2023/05/24 07:25:38;;;;;;;13.25;3.47;;;14.90;99.90;;;;;;4853664;29;39177;-81
2023/05/24 07:28:05;;;;;;;14.55;3.15;;;14.80;99.90;;;;;;4854503;29;35811;-81
2023/05/24 07:30:31;;;;;;;11.90;2.63;;;14.70;99.90;;;;;;4849226;29;37911;-84
2023/05/24 07:32:57;;;;;;;16.75;3.75;;;14.80;99.90;;;;;;4851418;29;38105;-80
2023/05/24 07:35:23;;;;;;;15.23;3.78;;;15.20;99.90;;;;;;4850960;29;39324;-82
2023/05/24 07:37:49;;;;;;;13.68;2.85;;;15.40;99.90;;;;;;4844756;29;36079;-81
2023/05/24 07:40:16;;;;;;;11.38;3.03;;;15.60;99.90;;;;;;4850035;29;37670;-81
2023/05/24 07:42:42;;;;;;;9.75;2.40;;;16.10;99.90;;;;;;4856914;29;39079;-81
2023/05/24 07:45:09;;;;;;;13.35;3.17;;;16.30;99.90;;;;;;4850390;29;38926;-81
2023/05/24 07:47:36;;;;;;;16.98;3.58;;;16.40;99.90;;;;;;4854739;29;37039;-82
2023/05/24 07:50:02;;;;;;;13.02;3.80;;;16.50;99.90;;;;;;4859123;29;38639;-83
2023/05/24 07:52:28;;;;;;;16.60;3.78;;;16.40;99.90;;;;;;4849682;29;39783;-81
2023/05/24 07:54:55;;;;;;;12.57;3.05;;;16.20;99.90;;;;;;4850046;29;38396;-82
2023/05/24 07:57:21;;;;;;;9.55;2.78;;;16.10;99.90;;;;;;4851860;29;36576;-81
2023/05/24 07:59:47;;;;;;;14.52;3.42;;;16.20;99.90;;;;;;4857387;29;38742;-82
2023/05/24 08:02:15;;;;;;;10.63;3.05;;;16.30;99.90;;;;;;4851789;29;37406;-82
2023/05/24 08:04:45;;;;;;;11.82;3.17;;;16.60;99.90;;;;;;4854741;29;39367;-77
2023/05/24 08:07:11;;;;;;;10.80;3.15;;;16.80;99.90;;;;;;4852036;29;37324;-80
2023/05/24 08:09:37;;;;;;;13.20;2.70;;;16.80;99.90;;;;;;4850195;29;37998;-79
2023/05/24 08:12:05;;;;;;;12.10;2.95;;;16.70;99.90;;;;;;4854160;29;39665;-79
2023/05/24 08:14:31;;;;;;;13.80;2.72;;;16.70;99.90;;;;;;4856507;29;37657;-79
2023/05/24 08:16:59;;;;;;;12.07;3.45;;;16.60;99.90;;;;;;4856129;29;36698;-78
2023/05/24 08:19:26;;;;;;;9.27;2.67;;;16.60;99.90;;;;;;4851684;29;37907;-82
2023/05/24 08:21:56;;;;;;;12.65;3.17;;;16.80;99.90;;;;;;4860324;29;37717;-82
2023/05/24 08:24:22;;;;;;;12.50;3.30;;;16.90;99.90;;;;;;4855304;29;37677;-82
2023/05/24 08:26:57;;;;;;;10.77;2.83;;;17.00;99.90;;;;;;4849647;29;36122;-81
2023/05/24 08:29:23;;;;;;;10.18;3.03;;;16.80;99.90;;;;;;4856070;29;37675;-82
2023/05/24 08:31:49;;;;;;;11.63;2.97;;;16.90;99.90;;;;;;4857840;29;39028;-82
2023/05/24 08:34:15;;;;;;;13.10;2.97;;;17.00;99.90;;;;;;4845024;29;38220;-82
2023/05/24 08:36:42;;;;;;;10.02;3.20;;;17.00;99.90;;;;;;4851511;29;35705;-83
2023/05/24 08:39:09;;;;;;;10.05;2.92;;;17.10;99.90;;;;;;4853956;29;38489;-83
2023/05/24 08:41:38;;;;;;;16.00;3.40;;;17.50;99.90;;;;;;4861244;29;38883;-82
2023/05/24 08:44:06;;;;;;;12.27;3.50;;;17.50;99.90;;;;;;4855189;29;39647;-81
2023/05/24 08:46:34;;;;;;;12.63;3.13;;;17.40;99.90;;;;;;4855713;29;36584;-82
2023/05/24 08:49:06;;;;;;;10.68;3.42;;;17.30;99.90;;;;;;4852196;29;38848;-82
2023/05/24 08:51:32;;;;;;;12.50;3.47;;;17.80;99.90;;;;;;4845498;29;47804;-81
2023/05/24 08:54:00;;;;;;;13.00;2.95;;;18.40;99.90;;;;;;4848305;29;39057;-81
2023/05/24 08:56:27;;;;;;;13.65;3.10;;;18.70;99.90;;;;;;4852604;29;36259;-82
2023/05/24 08:58:54;;;;;;;12.82;3.40;;;18.80;99.90;;;;;;4850092;29;39693;-81
2023/05/24 09:01:22;;;;;;;11.20;2.97;;;18.80;99.90;;;;;;4846955;29;39686;-80
2023/05/24 09:03:50;;;;;;;14.07;3.22;;;19.20;99.90;;;;;;4852141;29;37739;-80
2023/05/24 09:06:18;;;;;;;11.90;2.95;;;19.10;99.90;;;;;;4866093;29;38036;-80
2023/05/24 09:08:44;;;;;;;11.05;3.45;;;19.10;99.90;;;;;;4864575;29;39160;-80
2023/05/24 09:11:11;;;;;;;8.35;2.60;;;19.30;99.90;;;;;;4842360;29;37873;-80
2023/05/24 09:13:38;;;;;;;14.25;3.72;;;19.30;99.90;;;;;;4867213;29;39593;-79
2023/05/24 09:16:05;;;;;;;9.85;2.90;;;19.30;99.90;;;;;;4843011;29;37446;-80
2023/05/24 09:18:31;;;;;;;11.68;2.58;;;19.60;99.90;;;;;;4847055;29;37640;-82
2023/05/24 09:20:57;;;;;;;8.85;2.40;;;19.80;99.90;;;;;;4851068;29;39049;-82
2023/05/24 09:23:25;;;;;;;12.77;2.58;;;20.00;99.90;;;;;;4862020;29;38335;-82
2023/05/24 09:25:51;;;;;;;9.93;2.55;;;20.20;99.90;;;;;;4853776;29;38158;-82
2023/05/24 09:28:18;;;;;;;10.73;2.45;;;20.00;99.90;;;;;;4841645;29;37912;-82
2023/05/24 09:30:56;;;;;;;9.40;2.90;;;20.00;99.90;;;;;;4852582;29;38832;-82
2023/05/24 09:33:22;;;;;;;13.32;2.72;;;19.80;99.90;;;;;;4849342;29;37855;-83
2023/05/24 09:35:48;;;;;;;10.50;2.88;;;20.00;99.90;;;;;;4842088;29;37461;-79
2023/05/24 09:38:18;;;;;;;14.88;3.40;;;20.20;99.90;;;;;;4850405;29;39055;-81
2023/05/24 09:40:44;;;;;;;8.15;3.22;;;20.30;99.90;;;;;;4846901;29;39560;-81
2023/05/24 09:43:11;;;;;;;10.90;3.47;;;20.10;99.90;;;;;;4848569;29;37287;-80
2023/05/24 09:45:45;;;;;;;10.50;3.15;;;20.00;99.90;;;;;;4846283;29;36434;-79
2023/05/24 09:48:12;;;;;;;10.00;3.00;;;20.00;99.90;;;;;;4842464;29;38713;-80
2023/05/24 09:50:39;;;;;;;6.20;2.55;;;20.40;99.90;;;;;;4847671;29;38974;-78
2023/05/24 09:53:05;;;;;;;12.32;2.72;;;20.30;99.90;;;;;;4860577;29;38193;-78
2023/05/24 09:55:35;;;;;;;7.57;2.22;;;20.50;99.90;;;;;;4850129;29;36339;-78
2023/05/24 09:58:10;;;;;;;10.63;2.67;;;20.50;99.90;;;;;;4851042;29;37903;-78
2023/05/24 10:00:40;;;;;;;10.50;3.03;;;20.20;99.90;;;;;;4848547;29;38195;-78
2023/05/24 10:03:07;;;;;;;7.88;2.78;;;20.10;99.90;;;;;;4847524;29;37447;-78
2023/05/24 10:05:35;;;;;;;6.55;2.60;;;19.90;99.90;;;;;;4859103;29;36430;-77
2023/05/24 10:08:03;;;;;;;9.30;2.55;;;20.20;99.90;;;;;;4847438;29;39257;-77
2023/05/24 10:10:32;;;;;;;9.65;2.50;;;20.60;99.90;;;;;;4846187;29;47652;-77
2023/05/24 10:13:00;;;;;;;10.75;3.05;;;20.30;99.90;;;;;;4850416;29;38568;-77
2023/05/24 10:15:27;;;;;;;12.20;2.83;;;20.70;99.90;;;;;;4849918;29;36160;-75
2023/05/24 10:17:54;;;;;;;6.57;2.50;;;21.20;99.90;;;;;;4862372;29;40340;-76
2023/05/24 10:20:20;;;;;;;9.82;2.92;;;21.30;99.90;;;;;;4852788;29;38844;-77
2023/05/24 10:22:50;;;;;;;12.05;2.83;;;21.10;99.90;;;;;;4865461;29;37228;-75
2023/05/24 10:25:21;;;;;;;11.38;2.92;;;21.50;99.90;;;;;;4856039;29;37477;-75
2023/05/24 10:27:53;;;;;;;9.25;3.05;;;21.80;99.90;;;;;;4847533;29;38718;-75
2023/05/24 10:30:47;;;;;;;9.63;3.00;;;21.70;99.90;;;;;;4857920;29;38497;-78
2023/05/24 10:33:13;;;;;;;11.27;3.03;;;21.60;99.90;;;;;;4852328;29;38406;-76
2023/05/24 10:35:41;;;;;;;7.53;2.80;;;21.20;99.90;;;;;;4848095;29;36164;-76
2023/05/24 10:38:08;;;;;;;9.77;2.50;;;21.00;99.90;;;;;;4857387;29;40156;-76
2023/05/24 10:40:39;;;;;;;9.70;2.60;;;21.00;99.90;;;;;;4856195;29;37789;-76
2023/05/24 10:43:06;;;;;;;10.18;2.55;;;21.00;99.90;;;;;;4849770;29;37576;-75
2023/05/24 10:45:37;;;;;;;8.18;2.42;;;21.10;99.90;;;;;;4848953;29;37774;-75
2023/05/24 10:48:12;;;;;;;11.80;2.13;;;21.40;99.90;;;;;;4859935;29;39639;-78
2023/05/24 10:50:39;;;;;;;7.88;2.30;;;21.80;99.90;;;;;;4855295;29;38539;-76
2023/05/24 10:53:26;;;;;;;7.28;2.42;;;21.80;99.90;;;;;;4858877;29;38642;-76
2023/05/24 10:56:05;;;;;;;6.22;2.25;;;21.60;99.90;;;;;;4856072;29;37102;-76
2023/05/24 10:58:47;;;;;;;10.35;2.17;;;21.70;99.90;;;;;;4845652;29;47259;-76
2023/05/24 11:01:26;;;;;;;10.35;2.72;;;21.90;99.90;;;;;;4846483;29;38090;-75
2023/05/24 11:04:05;;;;;;;9.10;2.47;;;21.60;99.90;;;;;;4849033;29;38062;-78
2023/05/24 11:07:04;;;;;;;9.57;2.60;;;21.10;99.90;;;;;;4851256;29;47779;-76
2023/05/24 11:09:31;;;;;;;10.90;2.80;;;21.20;99.90;;;;;;4855441;29;48610;-76
2023/05/24 11:12:08;;;;;;;8.90;2.38;;;21.40;99.90;;;;;;4854572;29;39286;-76
2023/05/24 11:14:39;;;;;;;6.63;2.60;;;21.30;99.90;;;;;;4847252;29;48636;-77
2023/05/24 11:17:07;;;;;;;9.73;2.30;;;21.40;99.90;;;;;;4858125;29;36705;-77
2023/05/24 11:19:36;;;;;;;8.20;2.83;;;21.40;99.90;;;;;;4856188;29;38468;-76
2023/05/24 11:22:06;;;;;;;9.52;2.97;;;21.30;99.90;;;;;;4862662;29;37780;-77
2023/05/24 11:24:33;;;;;;;11.45;2.58;;;21.50;99.90;;;;;;4848860;29;39169;-77
2023/05/24 11:27:03;;;;;;;8.10;2.42;;;21.10;99.90;;;;;;4856945;29;37723;-77
2023/05/24 11:29:29;;;;;;;9.13;2.60;;;21.10;99.90;;;;;;4849979;29;49269;-76
2023/05/24 11:32:02;;;;;;;12.93;2.88;;;21.20;99.90;;;;;;4847803;29;37705;-76
2023/05/24 11:34:30;;;;;;;9.88;2.72;;;21.20;99.90;;;;;;4850025;29;47094;-76
2023/05/24 11:37:01;;;;;;;7.80;2.85;;;21.30;99.90;;;;;;4863444;29;37363;-77
2023/05/24 11:39:35;;;;;;;9.10;2.90;;;21.50;99.90;;;;;;4860973;29;40483;-77
2023/05/24 11:42:05;;;;;;;8.43;2.53;;;21.80;99.90;;;;;;4851126;29;38304;-78
2023/05/24 11:44:32;;;;;;;9.00;2.28;;;21.80;99.90;;;;;;4846536;29;38243;-77
2023/05/24 11:47:00;;;;;;;9.05;2.67;;;21.20;99.90;;;;;;4852320;29;36966;-77
2023/05/24 11:49:27;;;;;;;8.95;2.80;;;20.90;99.90;;;;;;4857263;29;39550;-77
2023/05/24 11:51:57;;;;;;;7.93;2.78;;;20.80;99.90;;;;;;4854355;29;39386;-77
2023/05/24 11:54:23;;;;;;;6.93;2.60;;;21.40;99.90;;;;;;4851097;29;39490;-77
2023/05/24 11:56:51;;;;;;;6.88;2.40;;;21.80;99.90;;;;;;4852168;29;36384;-77
2023/05/24 11:59:23;;;;;;;8.52;2.30;;;21.90;99.90;;;;;;4848480;29;37578;-77
2023/05/24 12:01:56;;;;;;;10.20;2.47;;;21.10;99.90;;;;;;4843296;29;38821;-77
2023/05/24 12:04:22;;;;;;;6.90;2.10;;;20.60;99.90;;;;;;4851759;29;37976;-78
2023/05/24 12:06:48;;;;;;;8.77;2.35;;;21.00;99.90;;;;;;4855242;29;36232;-77
2023/05/24 12:09:16;;;;;;;7.32;2.60;;;21.10;99.90;;;;;;4841922;29;37378;-78
2023/05/24 12:11:45;;;;;;;10.18;2.85;;;21.20;99.90;;;;;;4851332;29;37570;-78
2023/05/24 12:14:17;;;;;;;8.32;2.67;;;21.10;99.90;;;;;;4848195;29;37429;-76
2023/05/24 12:16:44;;;;;;;9.75;2.72;;;21.00;99.90;;;;;;4859214;29;36079;-77
2023/05/24 12:19:20;;;;;;;7.18;2.40;;;21.10;99.90;;;;;;4853172;29;38554;-77
2023/05/24 12:21:48;;;;;;;9.95;2.10;;;21.20;99.90;;;;;;4854454;29;39075;-77
2023/05/24 12:24:15;;;;;;;8.27;2.55;;;20.80;99.90;;;;;;4847553;29;39400;-77
2023/05/24 12:26:43;;;;;;;7.75;2.83;;;20.80;99.90;;;;;;4859894;29;37334;-77
2023/05/24 12:29:11;;;;;;;8.05;2.80;;;21.40;99.90;;;;;;4853923;29;37798;-77
2023/05/24 12:31:41;;;;;;;9.23;2.50;;;21.80;99.90;;;;;;4846101;29;38508;-77
2023/05/24 12:34:17;;;;;;;8.20;2.20;;;21.80;99.90;;;;;;4852181;29;37319;-78
2023/05/24 12:36:44;;;;;;;10.70;2.83;;;21.10;99.90;;;;;;4854650;29;37066;-77
2023/05/24 12:39:21;;;;;;;8.50;2.38;;;20.60;99.90;;;;;;4853522;29;39916;-77
2023/05/24 12:41:52;;;;;;;6.57;2.45;;;20.50;99.90;;;;;;4855117;29;38629;-77
2023/05/24 12:44:28;;;;;;;14.98;2.85;;;20.30;99.90;;;;;;4857081;29;37520;-77
2023/05/24 12:46:56;;;;;;;11.15;2.92;;;20.00;99.90;;;;;;4854961;29;36774;-77
2023/05/24 12:49:23;;;;;;;12.43;2.83;;;19.90;99.90;;;;;;4861383;29;38657;-77
2023/05/24 12:51:50;;;;;;;7.90;2.60;;;20.00;99.90;;;;;;4846642;29;37982;-76
2023/05/24 12:54:22;;;;;;;6.38;2.60;;;20.20;99.90;;;;;;4854157;29;38559;-77
2023/05/24 12:56:48;;;;;;;7.72;2.67;;;20.50;99.90;;;;;;4853445;29;37294;-77
2023/05/24 12:59:15;;;;;;;15.30;2.65;;;20.60;99.90;;;;;;4861192;29;39586;-78
2023/05/24 13:01:41;;;;;;;7.88;2.17;;;20.40;99.90;;;;;;4855285;29;37600;-77
2023/05/24 13:04:09;;;;;;;8.68;3.03;;;20.10;99.90;;;;;;4854372;29;37201;-78
2023/05/24 13:06:37;;;;;;;10.40;3.22;;;19.80;99.90;;;;;;4852735;29;37370;-80
2023/05/24 13:09:03;;;;;;;9.05;2.78;;;19.50;99.90;;;;;;4853726;29;37591;-77
2023/05/24 13:11:30;;;;;;;9.88;2.70;;;19.30;99.90;;;;;;4851875;29;40141;-79
2023/05/24 13:13:58;;;;;;;9.88;2.63;;;19.30;99.90;;;;;;4862507;29;39562;-78
2023/05/24 13:16:25;;;;;;;8.20;2.30;;;19.60;99.90;;;;;;4855348;29;36474;-78
2023/05/24 13:18:51;;;;;;;12.88;2.67;;;19.60;99.90;;;;;;4857377;29;38676;-80
2023/05/24 13:21:18;;;;;;;8.95;2.83;;;19.70;99.90;;;;;;4852739;29;37729;-79
2023/05/24 13:23:44;;;;;;;9.70;3.25;;;19.40;99.90;;;;;;4853289;29;39923;-79
2023/05/24 13:26:11;;;;;;;17.70;3.90;;;19.30;99.90;;;;;;4845941;29;36083;-78
2023/05/24 13:28:38;;;;;;;10.20;3.05;;;19.20;99.90;;;;;;4851689;29;39573;-79
2023/05/24 13:31:05;;;;;;;6.70;2.72;;;19.20;99.90;;;;;;4848227;29;38245;-79
2023/05/24 13:33:31;;;;;;;12.40;3.55;;;19.20;99.90;;;;;;4848084;29;37331;-79
2023/05/24 13:35:57;;;;;;;9.98;2.95;;;19.30;99.90;;;;;;4858948;29;38160;-79
2023/05/24 13:38:24;;;;;;;13.25;3.33;;;19.40;99.90;;;;;;4852787;29;39759;-77
2023/05/24 13:40:52;;;;;;;10.30;3.25;;;19.80;99.90;;;;;;4857652;29;39017;-79
2023/05/24 13:43:18;;;;;;;18.23;3.85;;;19.50;99.90;;;;;;4856114;29;39314;-77
2023/05/24 13:45:45;;;;;;;14.75;3.50;;;19.60;99.90;;;;;;4858685;29;36343;-79
2023/05/24 13:48:11;;;;;;;12.23;3.55;;;19.90;99.90;;;;;;4864167;29;37718;-78